PWSweather.com
Personal Weather Stations
Station Observations
UWIDEPER1
Brown County, Depere, WI 54115

Brown CountyDepere, WI 54115

Lat: 44.44, Lon: -88.05

Elevation: 610

Station Type: Acurite 5in1

www.depereweather.com

High Low Average
Temperature 30.2°F-1.0°C 3.2°F-16.0°C 11.0°F-11.7°C
Dew Point 25.7°F-3.5°C -9.2°F-22.9°C 0.9°F-17.3°C
Winds 15.0 mph 24.1 kmh 3.5 mph 5.6 kmh 8.0 mph W12.9 kmh W
Wind Gusts 25.3 mph40.7 kmh 3.5 mph5.6 kmh 10.0 mph16.1 kmh
Humidity 86% 50% 64%
Pressure 30.45 in1031.2 mb 29.70 in1005.8 mb -
Precipitation 0.00 in0.0 mm - -
Hour Temp Dew Point Humidity Winds Wind Gusts Pressure Precip Precip Rate Daily Precip Total
12:00 AM 30.2°F-1.0°C 24.2°F-4.3°C 78% 2.3 mph WSW3.7 kmh WSW 3.5 mph5.6 kmh 29.70 in1005.8 mb - 0.00 in0.0 mm 0.00 in0.0 mm
12:10 AM 30.2°F-1.0°C 24.5°F-4.2°C 79% 2.3 mph WSW3.7 kmh WSW 3.5 mph5.6 kmh 29.71 in1006.1 mb - 0.00 in0.0 mm 0.00 in0.0 mm
12:15 AM 30.2°F-1.0°C 24.5°F-4.2°C 79% 3.5 mph WSW5.6 kmh WSW 6.9 mph11.1 kmh 29.71 in1006.1 mb - 0.00 in0.0 mm 0.00 in0.0 mm
12:20 AM 30.2°F-1.0°C 24.5°F-4.2°C 79% 5.8 mph WSW9.3 kmh WSW 5.8 mph9.3 kmh 29.72 in1006.4 mb - 0.00 in0.0 mm 0.00 in0.0 mm
12:25 AM 30.2°F-1.0°C 23.5°F-4.7°C 76% 4.6 mph WNW7.4 kmh WNW 6.9 mph11.1 kmh 29.71 in1006.1 mb - 0.00 in0.0 mm 0.00 in0.0 mm
12:30 AM 30.2°F-1.0°C 23.2°F-4.9°C 75% 5.8 mph WSW9.3 kmh WSW 8.1 mph13.0 kmh 29.71 in1006.1 mb - 0.00 in0.0 mm 0.00 in0.0 mm
12:35 AM 30.2°F-1.0°C 23.2°F-4.9°C 75% 5.8 mph W9.3 kmh W 6.9 mph11.1 kmh 29.71 in1006.1 mb - 0.00 in0.0 mm 0.00 in0.0 mm
12:40 AM 30.2°F-1.0°C 23.2°F-4.9°C 75% 4.6 mph SW7.4 kmh SW 8.1 mph13.0 kmh 29.71 in1006.1 mb - 0.00 in0.0 mm 0.00 in0.0 mm
12:45 AM 30.2°F-1.0°C 23.2°F-4.9°C 75% 5.8 mph SW9.3 kmh SW 5.8 mph9.3 kmh 29.71 in1006.1 mb - 0.00 in0.0 mm 0.00 in0.0 mm
12:50 AM 30.2°F-1.0°C 23.2°F-4.9°C 75% 4.6 mph SW7.4 kmh SW 9.2 mph14.8 kmh 29.72 in1006.4 mb - 0.00 in0.0 mm 0.00 in0.0 mm
12:55 AM 30.2°F-1.0°C 23.2°F-4.9°C 75% 8.1 mph W13.0 kmh W 10.4 mph16.7 kmh 29.71 in1006.1 mb - 0.00 in0.0 mm 0.00 in0.0 mm
01:00 AM 30.2°F-1.0°C 23.5°F-4.7°C 76% 6.9 mph W11.1 kmh W 9.2 mph14.8 kmh 29.71 in1006.1 mb - 0.00 in0.0 mm 0.00 in0.0 mm
01:10 AM 30.2°F-1.0°C 24.5°F-4.2°C 79% 9.2 mph SW14.8 kmh SW 11.5 mph18.5 kmh 29.71 in1006.1 mb - 0.00 in0.0 mm 0.00 in0.0 mm
01:15 AM 30.2°F-1.0°C 25.1°F-3.8°C 81% 8.1 mph WSW13.0 kmh WSW 10.4 mph16.7 kmh 29.72 in1006.4 mb - 0.00 in0.0 mm 0.00 in0.0 mm
01:20 AM 30.2°F-1.0°C 25.7°F-3.5°C 83% 8.1 mph WSW13.0 kmh WSW 12.7 mph20.4 kmh 29.72 in1006.4 mb - 0.00 in0.0 mm 0.00 in0.0 mm
01:25 AM 28.4°F-2.0°C 24.5°F-4.2°C 85% 6.9 mph WSW11.1 kmh WSW 5.8 mph9.3 kmh 29.72 in1006.4 mb - 0.00 in0.0 mm 0.00 in0.0 mm
01:30 AM 28.4°F-2.0°C 24.5°F-4.2°C 85% 6.9 mph SW11.1 kmh SW 8.1 mph13.0 kmh 29.72 in1006.4 mb - 0.00 in0.0 mm 0.00 in0.0 mm
01:35 AM 28.4°F-2.0°C 24.5°F-4.2°C 85% 6.9 mph WSW11.1 kmh WSW 11.5 mph18.5 kmh 29.71 in1006.1 mb - 0.00 in0.0 mm 0.00 in0.0 mm
01:40 AM 28.4°F-2.0°C 24.5°F-4.2°C 85% 8.1 mph WSW13.0 kmh WSW 9.2 mph14.8 kmh 29.72 in1006.4 mb - 0.00 in0.0 mm 0.00 in0.0 mm
01:45 AM 28.4°F-2.0°C 24.5°F-4.2°C 85% 5.8 mph W9.3 kmh W 3.5 mph5.6 kmh 29.71 in1006.1 mb - 0.00 in0.0 mm 0.00 in0.0 mm
01:50 AM 28.4°F-2.0°C 24.5°F-4.2°C 85% 4.6 mph S7.4 kmh S 3.5 mph5.6 kmh 29.71 in1006.1 mb - 0.00 in0.0 mm 0.00 in0.0 mm
01:55 AM 28.4°F-2.0°C 24.5°F-4.2°C 85% 4.6 mph SW7.4 kmh SW 5.8 mph9.3 kmh 29.71 in1006.1 mb - 0.00 in0.0 mm 0.00 in0.0 mm
02:00 AM 28.4°F-2.0°C 24.7°F-4.1°C 86% 4.6 mph WSW7.4 kmh WSW 6.9 mph11.1 kmh 29.71 in1006.1 mb - 0.00 in0.0 mm 0.00 in0.0 mm
02:10 AM 28.4°F-2.0°C 24.7°F-4.1°C 86% 5.8 mph SW9.3 kmh SW 6.9 mph11.1 kmh 29.72 in1006.4 mb - 0.00 in0.0 mm 0.00 in0.0 mm
02:15 AM 28.4°F-2.0°C 24.7°F-4.1°C 86% 5.8 mph SW9.3 kmh SW 4.6 mph7.4 kmh 29.70 in1005.8 mb - 0.00 in0.0 mm 0.00 in0.0 mm
02:20 AM 28.4°F-2.0°C 24.7°F-4.1°C 86% 4.6 mph E7.4 kmh E 3.5 mph5.6 kmh 29.71 in1006.1 mb - 0.00 in0.0 mm 0.00 in0.0 mm
02:25 AM 28.4°F-2.0°C 24.7°F-4.1°C 86% 3.5 mph S5.6 kmh S 6.9 mph11.1 kmh 29.71 in1006.1 mb - 0.00 in0.0 mm 0.00 in0.0 mm
02:30 AM 28.4°F-2.0°C 24.5°F-4.2°C 85% 5.8 mph WSW9.3 kmh WSW 5.8 mph9.3 kmh 29.71 in1006.1 mb - 0.00 in0.0 mm 0.00 in0.0 mm
02:35 AM 28.4°F-2.0°C 24.5°F-4.2°C 85% 5.8 mph W9.3 kmh W 9.2 mph14.8 kmh 29.71 in1006.1 mb - 0.00 in0.0 mm 0.00 in0.0 mm
02:40 AM 28.4°F-2.0°C 23.9°F-4.5°C 83% 6.9 mph W11.1 kmh W 9.2 mph14.8 kmh 29.72 in1006.4 mb - 0.00 in0.0 mm 0.00 in0.0 mm
02:45 AM 28.4°F-2.0°C 23.9°F-4.5°C 83% 6.9 mph WNW11.1 kmh WNW 9.2 mph14.8 kmh 29.73 in1006.8 mb - 0.00 in0.0 mm 0.00 in0.0 mm
02:50 AM 28.4°F-2.0°C 23.9°F-4.5°C 83% 8.1 mph NW13.0 kmh NW 11.5 mph18.5 kmh 29.73 in1006.8 mb - 0.00 in0.0 mm 0.00 in0.0 mm
02:55 AM 28.4°F-2.0°C 23.9°F-4.5°C 83% 9.2 mph WSW14.8 kmh WSW 10.4 mph16.7 kmh 29.74 in1007.1 mb - 0.00 in0.0 mm 0.00 in0.0 mm
03:00 AM 28.4°F-2.0°C 23.9°F-4.5°C 83% 6.9 mph WSW11.1 kmh WSW 11.5 mph18.5 kmh 29.74 in1007.1 mb - 0.00 in0.0 mm 0.00 in0.0 mm
03:10 AM 28.4°F-2.0°C 23.9°F-4.5°C 83% 8.1 mph W13.0 kmh W 6.9 mph11.1 kmh 29.74 in1007.1 mb - 0.00 in0.0 mm 0.00 in0.0 mm
03:15 AM 28.4°F-2.0°C 23.9°F-4.5°C 83% 5.8 mph WSW9.3 kmh WSW 5.8 mph9.3 kmh 29.75 in1007.5 mb - 0.00 in0.0 mm 0.00 in0.0 mm
03:20 AM 28.4°F-2.0°C 23.9°F-4.5°C 83% 9.2 mph SW14.8 kmh SW 12.7 mph20.4 kmh 29.75 in1007.5 mb - 0.00 in0.0 mm 0.00 in0.0 mm
03:25 AM 28.4°F-2.0°C 23.9°F-4.5°C 83% 8.1 mph W13.0 kmh W 8.1 mph13.0 kmh 29.75 in1007.5 mb - 0.00 in0.0 mm 0.00 in0.0 mm
03:30 AM 28.4°F-2.0°C 23.9°F-4.5°C 83% 5.8 mph WSW9.3 kmh WSW 4.6 mph7.4 kmh 29.75 in1007.5 mb - 0.00 in0.0 mm 0.00 in0.0 mm
03:35 AM 28.4°F-2.0°C 23.3°F-4.8°C 81% 10.4 mph WSW16.7 kmh WSW 10.4 mph16.7 kmh 29.75 in1007.5 mb - 0.00 in0.0 mm 0.00 in0.0 mm
03:40 AM 28.4°F-2.0°C 23.3°F-4.8°C 81% 9.2 mph WNW14.8 kmh WNW 12.7 mph20.4 kmh 29.75 in1007.5 mb - 0.00 in0.0 mm 0.00 in0.0 mm
03:45 AM 26.6°F-3.0°C 20.7°F-6.3°C 78% 11.5 mph WNW18.5 kmh WNW 12.7 mph20.4 kmh 29.77 in1008.1 mb - 0.00 in0.0 mm 0.00 in0.0 mm
03:50 AM 26.6°F-3.0°C 20.7°F-6.3°C 78% 12.7 mph WNW20.4 kmh WNW 12.7 mph20.4 kmh 29.77 in1008.1 mb - 0.00 in0.0 mm 0.00 in0.0 mm
03:55 AM 24.8°F-4.0°C 18.9°F-7.3°C 78% 10.4 mph W16.7 kmh W 12.7 mph20.4 kmh 29.77 in1008.1 mb - 0.00 in0.0 mm 0.00 in0.0 mm
04:00 AM 24.8°F-4.0°C 18.9°F-7.3°C 78% 9.2 mph WNW14.8 kmh WNW 10.4 mph16.7 kmh 29.79 in1008.8 mb - 0.00 in0.0 mm 0.00 in0.0 mm
04:10 AM 24.8°F-4.0°C 19.2°F-7.1°C 79% 11.5 mph WNW18.5 kmh WNW 11.5 mph18.5 kmh 29.79 in1008.8 mb - 0.00 in0.0 mm 0.00 in0.0 mm
04:15 AM 24.8°F-4.0°C 19.5°F-6.9°C 80% 10.4 mph W16.7 kmh W 18.4 mph29.6 kmh 29.79 in1008.8 mb - 0.00 in0.0 mm 0.00 in0.0 mm
04:20 AM 24.8°F-4.0°C 18.9°F-7.3°C 78% 13.8 mph WNW22.2 kmh WNW 15.0 mph24.1 kmh 29.79 in1008.8 mb - 0.00 in0.0 mm 0.00 in0.0 mm
04:25 AM 24.0°F-4.4°C 18.1°F-7.7°C 78% 10.4 mph W16.7 kmh W 17.3 mph27.8 kmh 29.79 in1008.8 mb - 0.00 in0.0 mm 0.00 in0.0 mm
04:30 AM 23.0°F-5.0°C 17.2°F-8.2°C 78% 8.1 mph W13.0 kmh W 9.2 mph14.8 kmh 29.80 in1009.1 mb - 0.00 in0.0 mm 0.00 in0.0 mm
04:35 AM 23.0°F-5.0°C 17.2°F-8.2°C 78% 6.9 mph W11.1 kmh W 10.4 mph16.7 kmh 29.79 in1008.8 mb - 0.00 in0.0 mm 0.00 in0.0 mm
04:40 AM 23.0°F-5.0°C 16.3°F-8.7°C 75% 8.1 mph W13.0 kmh W 12.7 mph20.4 kmh 29.80 in1009.1 mb - 0.00 in0.0 mm 0.00 in0.0 mm
04:45 AM 23.0°F-5.0°C 16.3°F-8.7°C 75% 13.8 mph W22.2 kmh W 19.6 mph31.5 kmh 29.80 in1009.1 mb - 0.00 in0.0 mm 0.00 in0.0 mm
04:50 AM 22.6°F-5.2°C 15.9°F-8.9°C 75% 9.2 mph NW14.8 kmh NW 12.7 mph20.4 kmh 29.82 in1009.8 mb - 0.00 in0.0 mm 0.00 in0.0 mm
04:55 AM 21.2°F-6.0°C 12.3°F-10.9°C 68% 12.7 mph W20.4 kmh W 11.5 mph18.5 kmh 29.81 in1009.5 mb - 0.00 in0.0 mm 0.00 in0.0 mm
05:00 AM 21.2°F-6.0°C 11.6°F-11.3°C 66% 10.4 mph W16.7 kmh W 11.5 mph18.5 kmh 29.83 in1010.2 mb - 0.00 in0.0 mm 0.00 in0.0 mm
05:10 AM 19.4°F-7.0°C 9.9°F-12.3°C 66% 10.4 mph W16.7 kmh W 13.8 mph22.2 kmh 29.83 in1010.2 mb - 0.00 in0.0 mm 0.00 in0.0 mm
05:15 AM 19.4°F-7.0°C 9.5°F-12.5°C 65% 12.7 mph W20.4 kmh W 15.0 mph24.1 kmh 29.84 in1010.5 mb - 0.00 in0.0 mm 0.00 in0.0 mm
05:20 AM 17.6°F-8.0°C 7.1°F-13.8°C 63% 15.0 mph W24.1 kmh W 18.4 mph29.6 kmh 29.85 in1010.8 mb - 0.00 in0.0 mm 0.00 in0.0 mm
05:25 AM 17.6°F-8.0°C 7.1°F-13.8°C 63% 11.5 mph W18.5 kmh W 10.4 mph16.7 kmh 29.85 in1010.8 mb - 0.00 in0.0 mm 0.00 in0.0 mm
05:30 AM 17.6°F-8.0°C 7.5°F-13.6°C 64% 10.4 mph SE16.7 kmh SE 17.3 mph27.8 kmh 29.85 in1010.8 mb - 0.00 in0.0 mm 0.00 in0.0 mm
05:35 AM 17.6°F-8.0°C 7.5°F-13.6°C 64% 8.1 mph W13.0 kmh W 6.9 mph11.1 kmh 29.86 in1011.2 mb - 0.00 in0.0 mm 0.00 in0.0 mm
05:40 AM 17.6°F-8.0°C 7.8°F-13.4°C 65% 9.2 mph W14.8 kmh W 15.0 mph24.1 kmh 29.86 in1011.2 mb - 0.00 in0.0 mm 0.00 in0.0 mm
05:45 AM 15.8°F-9.0°C 6.1°F-14.4°C 65% 10.4 mph W16.7 kmh W 12.7 mph20.4 kmh 29.86 in1011.2 mb - 0.00 in0.0 mm 0.00 in0.0 mm
05:50 AM 15.8°F-9.0°C 6.1°F-14.4°C 65% 10.4 mph W16.7 kmh W 13.8 mph22.2 kmh 29.87 in1011.5 mb - 0.00 in0.0 mm 0.00 in0.0 mm
05:55 AM 15.8°F-9.0°C 6.4°F-14.2°C 66% 9.2 mph W14.8 kmh W 11.5 mph18.5 kmh 29.88 in1011.9 mb - 0.00 in0.0 mm 0.00 in0.0 mm
06:00 AM 14.0°F-10.0°C 5.4°F-14.8°C 68% 9.2 mph NNW14.8 kmh NNW 12.7 mph20.4 kmh 29.88 in1011.9 mb - 0.00 in0.0 mm 0.00 in0.0 mm
06:10 AM 14.0°F-10.0°C 6.0°F-14.4°C 70% 11.5 mph NW18.5 kmh NW 25.3 mph40.7 kmh 29.90 in1012.5 mb - 0.00 in0.0 mm 0.00 in0.0 mm
06:15 AM 12.4°F-10.9°C 4.2°F-15.4°C 69% 13.8 mph NW22.2 kmh NW 24.2 mph38.9 kmh 29.91 in1012.9 mb - 0.00 in0.0 mm 0.00 in0.0 mm
06:20 AM 12.2°F-11.0°C 4.0°F-15.6°C 69% 9.2 mph WNW14.8 kmh WNW 10.4 mph16.7 kmh 29.91 in1012.9 mb - 0.00 in0.0 mm 0.00 in0.0 mm
06:25 AM 12.2°F-11.0°C 4.0°F-15.6°C 69% 10.4 mph NW16.7 kmh NW 17.3 mph27.8 kmh 29.91 in1012.9 mb - 0.00 in0.0 mm 0.00 in0.0 mm
06:30 AM 12.2°F-11.0°C 3.6°F-15.8°C 68% 11.5 mph W18.5 kmh W 11.5 mph18.5 kmh 29.92 in1013.2 mb - 0.00 in0.0 mm 0.00 in0.0 mm
06:35 AM 12.2°F-11.0°C 3.0°F-16.1°C 66% 9.2 mph W14.8 kmh W 9.2 mph14.8 kmh 29.93 in1013.5 mb - 0.00 in0.0 mm 0.00 in0.0 mm
06:40 AM 12.2°F-11.0°C 3.0°F-16.1°C 66% 10.4 mph W16.7 kmh W 13.8 mph22.2 kmh 29.91 in1012.9 mb - 0.00 in0.0 mm 0.00 in0.0 mm
06:45 AM 10.4°F-12.0°C 1.3°F-17.1°C 66% 11.5 mph W18.5 kmh W 15.0 mph24.1 kmh 29.93 in1013.5 mb - 0.00 in0.0 mm 0.00 in0.0 mm
06:50 AM 10.4°F-12.0°C 1.3°F-17.1°C 66% 12.7 mph W20.4 kmh W 11.5 mph18.5 kmh 29.93 in1013.5 mb - 0.00 in0.0 mm 0.00 in0.0 mm
06:55 AM 10.4°F-12.0°C 2.2°F-16.6°C 69% 10.4 mph WSW16.7 kmh WSW 12.7 mph20.4 kmh 29.94 in1013.9 mb - 0.00 in0.0 mm 0.00 in0.0 mm
07:00 AM 10.4°F-12.0°C 2.5°F-16.4°C 70% 10.4 mph NW16.7 kmh NW 11.5 mph18.5 kmh 29.94 in1013.9 mb - 0.00 in0.0 mm 0.00 in0.0 mm
07:10 AM 8.6°F-13.0°C 0.5°F-17.5°C 69% 11.5 mph WSW18.5 kmh WSW 15.0 mph24.1 kmh 29.95 in1014.2 mb - 0.00 in0.0 mm 0.00 in0.0 mm
07:15 AM 8.6°F-13.0°C 0.8°F-17.3°C 70% 10.4 mph W16.7 kmh W 12.7 mph20.4 kmh 29.95 in1014.2 mb - 0.00 in0.0 mm 0.00 in0.0 mm
07:20 AM 8.6°F-13.0°C 0.8°F-17.3°C 70% 10.4 mph W16.7 kmh W 11.5 mph18.5 kmh 29.96 in1014.6 mb - 0.00 in0.0 mm 0.00 in0.0 mm
07:25 AM 8.6°F-13.0°C 0.8°F-17.3°C 70% 10.4 mph WNW16.7 kmh WNW 11.5 mph18.5 kmh 29.96 in1014.6 mb - 0.00 in0.0 mm 0.00 in0.0 mm
07:30 AM 8.6°F-13.0°C 0.8°F-17.3°C 70% 11.5 mph NW18.5 kmh NW 19.6 mph31.5 kmh 29.97 in1014.9 mb - 0.00 in0.0 mm 0.00 in0.0 mm
07:35 AM 7.6°F-13.6°C 0.4°F-17.6°C 72% 12.7 mph WSW20.4 kmh WSW 12.7 mph20.4 kmh 29.98 in1015.2 mb - 0.00 in0.0 mm 0.00 in0.0 mm
07:40 AM 6.8°F-14.0°C -0.6°F-18.1°C 71% 11.5 mph NW18.5 kmh NW 13.8 mph22.2 kmh 29.97 in1014.9 mb - 0.00 in0.0 mm 0.00 in0.0 mm
07:45 AM 6.8°F-14.0°C -2.5°F-19.2°C 65% 12.7 mph W20.4 kmh W 16.1 mph25.9 kmh 29.98 in1015.2 mb - 0.00 in0.0 mm 0.00 in0.0 mm
07:50 AM 6.8°F-14.0°C -2.5°F-19.2°C 65% 12.7 mph NW20.4 kmh NW 18.4 mph29.6 kmh 29.99 in1015.6 mb - 0.00 in0.0 mm 0.00 in0.0 mm
07:55 AM 6.8°F-14.0°C -0.9°F-18.3°C 70% 10.4 mph WSW16.7 kmh WSW 10.4 mph16.7 kmh 29.99 in1015.6 mb - 0.00 in0.0 mm 0.00 in0.0 mm
08:00 AM 6.8°F-14.0°C 0.0°F-17.8°C 73% 11.5 mph W18.5 kmh W 11.5 mph18.5 kmh 30.00 in1015.9 mb - 0.00 in0.0 mm 0.00 in0.0 mm
08:10 AM 5.0°F-15.0°C -1.8°F-18.8°C 73% 11.5 mph W18.5 kmh W 11.5 mph18.5 kmh 30.01 in1016.3 mb - 0.00 in0.0 mm 0.00 in0.0 mm
08:15 AM 5.0°F-15.0°C -1.8°F-18.8°C 73% 11.5 mph WSW18.5 kmh WSW 19.6 mph31.5 kmh 30.01 in1016.3 mb - 0.00 in0.0 mm 0.00 in0.0 mm
08:20 AM 5.0°F-15.0°C -1.8°F-18.8°C 73% 11.5 mph W18.5 kmh W 11.5 mph18.5 kmh 30.02 in1016.6 mb - 0.00 in0.0 mm 0.00 in0.0 mm
08:25 AM 5.0°F-15.0°C -2.4°F-19.1°C 71% 10.4 mph WSW16.7 kmh WSW 17.3 mph27.8 kmh 30.03 in1016.9 mb - 0.00 in0.0 mm 0.00 in0.0 mm
08:30 AM 5.0°F-15.0°C -5.5°F-20.8°C 61% 15.0 mph WSW24.1 kmh WSW 16.1 mph25.9 kmh 30.03 in1016.9 mb - 0.00 in0.0 mm 0.00 in0.0 mm
08:35 AM 5.0°F-15.0°C -5.9°F-21.1°C 60% 12.7 mph NW20.4 kmh NW 15.0 mph24.1 kmh 30.03 in1016.9 mb - 0.00 in0.0 mm 0.00 in0.0 mm
08:40 AM 5.0°F-15.0°C -5.5°F-20.8°C 61% 9.2 mph NW14.8 kmh NW 19.6 mph31.5 kmh 30.04 in1017.3 mb - 0.00 in0.0 mm 0.00 in0.0 mm
08:45 AM 5.0°F-15.0°C -4.5°F-20.3°C 64% 8.1 mph W13.0 kmh W 10.4 mph16.7 kmh 30.04 in1017.3 mb - 0.00 in0.0 mm 0.00 in0.0 mm
08:50 AM 5.0°F-15.0°C -4.9°F-20.5°C 63% 12.7 mph WNW20.4 kmh WNW 16.1 mph25.9 kmh 30.04 in1017.3 mb - 0.00 in0.0 mm 0.00 in0.0 mm
08:55 AM 5.0°F-15.0°C -3.9°F-19.9°C 66% 10.4 mph W16.7 kmh W 13.8 mph22.2 kmh 30.05 in1017.6 mb - 0.00 in0.0 mm 0.00 in0.0 mm
09:00 AM 5.0°F-15.0°C -3.3°F-19.6°C 68% 9.2 mph WSW14.8 kmh WSW 11.5 mph18.5 kmh 30.07 in1018.3 mb - 0.00 in0.0 mm 0.00 in0.0 mm
09:10 AM 5.0°F-15.0°C -4.2°F-20.1°C 65% 9.2 mph NW14.8 kmh NW 12.7 mph20.4 kmh 30.08 in1018.6 mb - 0.00 in0.0 mm 0.00 in0.0 mm
09:15 AM 3.2°F-16.0°C -5.9°F-21.1°C 65% 11.5 mph WNW18.5 kmh WNW 13.8 mph22.2 kmh 30.08 in1018.6 mb - 0.00 in0.0 mm 0.00 in0.0 mm
09:20 AM 3.2°F-16.0°C -5.9°F-21.1°C 65% 10.4 mph W16.7 kmh W 17.3 mph27.8 kmh 30.08 in1018.6 mb - 0.00 in0.0 mm 0.00 in0.0 mm
09:25 AM 3.2°F-16.0°C -7.2°F-21.8°C 61% 12.7 mph NW20.4 kmh NW 19.6 mph31.5 kmh 30.09 in1019.0 mb - 0.00 in0.0 mm 0.00 in0.0 mm
09:30 AM 3.2°F-16.0°C -6.6°F-21.4°C 63% 12.7 mph WNW20.4 kmh WNW 15.0 mph24.1 kmh 30.10 in1019.3 mb - 0.00 in0.0 mm 0.00 in0.0 mm
09:35 AM 3.2°F-16.0°C -5.9°F-21.1°C 65% 6.9 mph WNW11.1 kmh WNW 15.0 mph24.1 kmh 30.11 in1019.6 mb - 0.00 in0.0 mm 0.00 in0.0 mm
09:40 AM 3.2°F-16.0°C -6.6°F-21.4°C 63% 10.4 mph W16.7 kmh W 9.2 mph14.8 kmh 30.10 in1019.3 mb - 0.00 in0.0 mm 0.00 in0.0 mm
09:45 AM 3.2°F-16.0°C -6.6°F-21.4°C 63% 8.1 mph W13.0 kmh W 12.7 mph20.4 kmh 30.10 in1019.3 mb - 0.00 in0.0 mm 0.00 in0.0 mm
09:50 AM 3.2°F-16.0°C -7.2°F-21.8°C 61% 10.4 mph W16.7 kmh W 11.5 mph18.5 kmh 30.10 in1019.3 mb - 0.00 in0.0 mm 0.00 in0.0 mm
09:55 AM 3.2°F-16.0°C -7.2°F-21.8°C 61% 9.2 mph ESE14.8 kmh ESE 9.2 mph14.8 kmh 30.11 in1019.6 mb - 0.00 in0.0 mm 0.00 in0.0 mm
10:00 AM 5.0°F-15.0°C -5.5°F-20.8°C 61% 8.1 mph W13.0 kmh W 16.1 mph25.9 kmh 30.11 in1019.6 mb - 0.00 in0.0 mm 0.00 in0.0 mm
10:10 AM 3.2°F-16.0°C -7.2°F-21.8°C 61% 11.5 mph W18.5 kmh W 12.7 mph20.4 kmh 30.12 in1020.0 mb - 0.00 in0.0 mm 0.00 in0.0 mm
10:15 AM 3.2°F-16.0°C -7.6°F-22.0°C 60% 9.2 mph W14.8 kmh W 13.8 mph22.2 kmh 30.11 in1019.6 mb - 0.00 in0.0 mm 0.00 in0.0 mm
10:20 AM 3.2°F-16.0°C -7.9°F-22.2°C 59% 11.5 mph WSW18.5 kmh WSW 12.7 mph20.4 kmh 30.13 in1020.3 mb - 0.00 in0.0 mm 0.00 in0.0 mm
10:25 AM 5.0°F-15.0°C -5.9°F-21.1°C 60% 8.1 mph W13.0 kmh W 10.4 mph16.7 kmh 30.13 in1020.3 mb - 0.00 in0.0 mm 0.00 in0.0 mm
10:30 AM 5.0°F-15.0°C -6.6°F-21.4°C 58% 9.2 mph W14.8 kmh W 12.7 mph20.4 kmh 30.14 in1020.7 mb - 0.00 in0.0 mm 0.00 in0.0 mm
10:35 AM 5.0°F-15.0°C -7.7°F-22.1°C 55% 11.5 mph W18.5 kmh W 12.7 mph20.4 kmh 30.14 in1020.7 mb - 0.00 in0.0 mm 0.00 in0.0 mm
10:40 AM 5.0°F-15.0°C -7.7°F-22.1°C 55% 11.5 mph W18.5 kmh W 17.3 mph27.8 kmh 30.14 in1020.7 mb - 0.00 in0.0 mm 0.00 in0.0 mm
10:45 AM 5.0°F-15.0°C -6.9°F-21.6°C 57% 10.4 mph W16.7 kmh W 8.1 mph13.0 kmh 30.14 in1020.7 mb - 0.00 in0.0 mm 0.00 in0.0 mm
10:50 AM 5.0°F-15.0°C -7.7°F-22.1°C 55% 8.1 mph W13.0 kmh W 11.5 mph18.5 kmh 30.15 in1021.0 mb - 0.00 in0.0 mm 0.00 in0.0 mm
10:55 AM 6.8°F-14.0°C -6.0°F-21.1°C 55% 8.1 mph WSW13.0 kmh WSW 9.2 mph14.8 kmh 30.15 in1021.0 mb - 0.00 in0.0 mm 0.00 in0.0 mm
11:00 AM 5.4°F-14.8°C -7.7°F-22.1°C 54% 5.8 mph W9.3 kmh W 6.9 mph11.1 kmh 30.16 in1021.3 mb - 0.00 in0.0 mm 0.00 in0.0 mm
11:10 AM 6.8°F-14.0°C -6.4°F-21.3°C 54% 9.2 mph W14.8 kmh W 16.1 mph25.9 kmh 30.16 in1021.3 mb - 0.00 in0.0 mm 0.00 in0.0 mm
11:15 AM 5.0°F-15.0°C -9.2°F-22.9°C 51% 10.4 mph NW16.7 kmh NW 12.7 mph20.4 kmh 30.16 in1021.3 mb - 0.00 in0.0 mm 0.00 in0.0 mm
11:20 AM 6.8°F-14.0°C -6.4°F-21.3°C 54% 8.1 mph WSW13.0 kmh WSW 9.2 mph14.8 kmh 30.16 in1021.3 mb - 0.00 in0.0 mm 0.00 in0.0 mm
11:25 AM 6.8°F-14.0°C -6.7°F-21.5°C 53% 9.2 mph W14.8 kmh W 10.4 mph16.7 kmh 30.17 in1021.7 mb - 0.00 in0.0 mm 0.00 in0.0 mm
11:30 AM 6.8°F-14.0°C -6.7°F-21.5°C 53% 8.1 mph WSW13.0 kmh WSW 15.0 mph24.1 kmh 30.17 in1021.7 mb - 0.00 in0.0 mm 0.00 in0.0 mm
11:35 AM 6.8°F-14.0°C -6.7°F-21.5°C 53% 8.1 mph WSW13.0 kmh WSW 12.7 mph20.4 kmh 30.17 in1021.7 mb - 0.00 in0.0 mm 0.00 in0.0 mm
11:40 AM 6.8°F-14.0°C -6.7°F-21.5°C 53% 9.2 mph W14.8 kmh W 11.5 mph18.5 kmh 30.17 in1021.7 mb - 0.00 in0.0 mm 0.00 in0.0 mm
11:45 AM 6.8°F-14.0°C -7.5°F-21.9°C 51% 8.1 mph NW13.0 kmh NW 10.4 mph16.7 kmh 30.18 in1022.0 mb - 0.00 in0.0 mm 0.00 in0.0 mm
11:50 AM 6.8°F-14.0°C -7.5°F-21.9°C 51% 8.1 mph W13.0 kmh W 9.2 mph14.8 kmh 30.17 in1021.7 mb - 0.00 in0.0 mm 0.00 in0.0 mm
11:55 AM 6.8°F-14.0°C -7.5°F-21.9°C 51% 11.5 mph W18.5 kmh W 16.1 mph25.9 kmh 30.17 in1021.7 mb - 0.00 in0.0 mm 0.00 in0.0 mm
12:00 PM 6.8°F-14.0°C -6.7°F-21.5°C 53% 10.4 mph W16.7 kmh W 10.4 mph16.7 kmh 30.18 in1022.0 mb - 0.00 in0.0 mm 0.00 in0.0 mm
12:10 PM 6.8°F-14.0°C -7.5°F-21.9°C 51% 9.2 mph W14.8 kmh W 16.1 mph25.9 kmh 30.17 in1021.7 mb - 0.00 in0.0 mm 0.00 in0.0 mm
12:15 PM 6.8°F-14.0°C -7.5°F-21.9°C 51% 11.5 mph WNW18.5 kmh WNW 11.5 mph18.5 kmh 30.17 in1021.7 mb - 0.00 in0.0 mm 0.00 in0.0 mm
12:20 PM 6.8°F-14.0°C -7.5°F-21.9°C 51% 10.4 mph SW16.7 kmh SW 10.4 mph16.7 kmh 30.18 in1022.0 mb - 0.00 in0.0 mm 0.00 in0.0 mm
12:25 PM 8.4°F-13.1°C -5.3°F-20.7°C 53% 9.2 mph WNW14.8 kmh WNW 12.7 mph20.4 kmh 30.17 in1021.7 mb - 0.00 in0.0 mm 0.00 in0.0 mm
12:30 PM 7.8°F-13.4°C -6.2°F-21.2°C 52% 9.2 mph WSW14.8 kmh WSW 10.4 mph16.7 kmh 30.17 in1021.7 mb - 0.00 in0.0 mm 0.00 in0.0 mm
12:35 PM 6.8°F-14.0°C -7.5°F-21.9°C 51% 8.1 mph WSW13.0 kmh WSW 5.8 mph9.3 kmh 30.17 in1021.7 mb - 0.00 in0.0 mm 0.00 in0.0 mm
12:40 PM 6.8°F-14.0°C -7.5°F-21.9°C 51% 11.5 mph W18.5 kmh W 12.7 mph20.4 kmh 30.17 in1021.7 mb - 0.00 in0.0 mm 0.00 in0.0 mm
12:45 PM 6.8°F-14.0°C -7.5°F-21.9°C 51% 10.4 mph W16.7 kmh W 5.8 mph9.3 kmh 30.17 in1021.7 mb - 0.00 in0.0 mm 0.00 in0.0 mm
12:50 PM 8.6°F-13.0°C -5.9°F-21.1°C 51% 10.4 mph W16.7 kmh W 10.4 mph16.7 kmh 30.17 in1021.7 mb - 0.00 in0.0 mm 0.00 in0.0 mm
12:55 PM 8.6°F-13.0°C -5.5°F-20.8°C 52% 9.2 mph WNW14.8 kmh WNW 9.2 mph14.8 kmh 30.17 in1021.7 mb - 0.00 in0.0 mm 0.00 in0.0 mm
01:00 PM 8.6°F-13.0°C -5.9°F-21.1°C 51% 8.1 mph W13.0 kmh W 12.7 mph20.4 kmh 30.17 in1021.7 mb - 0.00 in0.0 mm 0.00 in0.0 mm
01:10 PM 8.6°F-13.0°C -5.9°F-21.1°C 51% 10.4 mph W16.7 kmh W 11.5 mph18.5 kmh 30.17 in1021.7 mb - 0.00 in0.0 mm 0.00 in0.0 mm
01:15 PM 6.8°F-14.0°C -7.5°F-21.9°C 51% 11.5 mph W18.5 kmh W 16.1 mph25.9 kmh 30.17 in1021.7 mb - 0.00 in0.0 mm 0.00 in0.0 mm
01:20 PM 8.2°F-13.2°C -6.2°F-21.2°C 51% 10.4 mph NW16.7 kmh NW 8.1 mph13.0 kmh 30.17 in1021.7 mb - 0.00 in0.0 mm 0.00 in0.0 mm
01:25 PM 8.6°F-13.0°C -5.5°F-20.8°C 52% 8.1 mph W13.0 kmh W 11.5 mph18.5 kmh 30.17 in1021.7 mb - 0.00 in0.0 mm 0.00 in0.0 mm
01:30 PM 8.6°F-13.0°C -5.9°F-21.1°C 51% 8.1 mph WSW13.0 kmh WSW 9.2 mph14.8 kmh 30.18 in1022.0 mb - 0.00 in0.0 mm 0.00 in0.0 mm
01:35 PM 8.6°F-13.0°C -6.3°F-21.3°C 50% 9.2 mph W14.8 kmh W 15.0 mph24.1 kmh 30.18 in1022.0 mb - 0.00 in0.0 mm 0.00 in0.0 mm
01:40 PM 8.6°F-13.0°C -6.3°F-21.3°C 50% 10.4 mph WSW16.7 kmh WSW 8.1 mph13.0 kmh 30.17 in1021.7 mb - 0.00 in0.0 mm 0.00 in0.0 mm
01:45 PM 8.6°F-13.0°C -6.3°F-21.3°C 50% 10.4 mph WSW16.7 kmh WSW 8.1 mph13.0 kmh 30.17 in1021.7 mb - 0.00 in0.0 mm 0.00 in0.0 mm
01:50 PM 8.6°F-13.0°C -6.3°F-21.3°C 50% 10.4 mph WSW16.7 kmh WSW 8.1 mph13.0 kmh 30.18 in1022.0 mb - 0.00 in0.0 mm 0.00 in0.0 mm
01:55 PM 8.6°F-13.0°C -6.3°F-21.3°C 50% 10.4 mph W16.7 kmh W 10.4 mph16.7 kmh 30.18 in1022.0 mb - 0.00 in0.0 mm 0.00 in0.0 mm
02:00 PM 8.6°F-13.0°C -6.3°F-21.3°C 50% 8.1 mph W13.0 kmh W 9.2 mph14.8 kmh 30.18 in1022.0 mb - 0.00 in0.0 mm 0.00 in0.0 mm
02:10 PM 8.6°F-13.0°C -5.1°F-20.6°C 53% 6.9 mph SW11.1 kmh SW 10.4 mph16.7 kmh 30.18 in1022.0 mb - 0.00 in0.0 mm 0.00 in0.0 mm
02:15 PM 10.4°F-12.0°C -4.6°F-20.3°C 50% 8.1 mph W13.0 kmh W 10.4 mph16.7 kmh 30.18 in1022.0 mb - 0.00 in0.0 mm 0.00 in0.0 mm
02:20 PM 10.4°F-12.0°C -4.6°F-20.3°C 50% 8.1 mph WNW13.0 kmh WNW 11.5 mph18.5 kmh 30.18 in1022.0 mb - 0.00 in0.0 mm 0.00 in0.0 mm
02:25 PM 10.4°F-12.0°C -4.6°F-20.3°C 50% 9.2 mph W14.8 kmh W 10.4 mph16.7 kmh 30.18 in1022.0 mb - 0.00 in0.0 mm 0.00 in0.0 mm
02:30 PM 10.4°F-12.0°C -4.6°F-20.3°C 50% 9.2 mph W14.8 kmh W 11.5 mph18.5 kmh 30.19 in1022.4 mb - 0.00 in0.0 mm 0.00 in0.0 mm
02:35 PM 10.4°F-12.0°C -4.6°F-20.3°C 50% 10.4 mph W16.7 kmh W 9.2 mph14.8 kmh 30.19 in1022.4 mb - 0.00 in0.0 mm 0.00 in0.0 mm
02:40 PM 9.0°F-12.8°C -5.9°F-21.1°C 50% 10.4 mph NE16.7 kmh NE 11.5 mph18.5 kmh 30.19 in1022.4 mb - 0.00 in0.0 mm 0.00 in0.0 mm
02:45 PM 10.4°F-12.0°C -4.6°F-20.3°C 50% 9.2 mph NW14.8 kmh NW 10.4 mph16.7 kmh 30.19 in1022.4 mb - 0.00 in0.0 mm 0.00 in0.0 mm
02:50 PM 10.4°F-12.0°C -4.6°F-20.3°C 50% 9.2 mph W14.8 kmh W 11.5 mph18.5 kmh 30.20 in1022.7 mb - 0.00 in0.0 mm 0.00 in0.0 mm
02:55 PM 10.4°F-12.0°C -4.6°F-20.3°C 50% 8.1 mph WNW13.0 kmh WNW 11.5 mph18.5 kmh 30.20 in1022.7 mb - 0.00 in0.0 mm 0.00 in0.0 mm
03:00 PM 10.4°F-12.0°C -4.6°F-20.3°C 50% 11.5 mph W18.5 kmh W 11.5 mph18.5 kmh 30.20 in1022.7 mb - 0.00 in0.0 mm 0.00 in0.0 mm
03:10 PM 10.4°F-12.0°C -4.6°F-20.3°C 50% 6.9 mph W11.1 kmh W 9.2 mph14.8 kmh 30.20 in1022.7 mb - 0.00 in0.0 mm 0.00 in0.0 mm
03:15 PM 10.4°F-12.0°C -4.6°F-20.3°C 50% 8.1 mph NW13.0 kmh NW 8.1 mph13.0 kmh 30.20 in1022.7 mb - 0.00 in0.0 mm 0.00 in0.0 mm
03:20 PM 10.4°F-12.0°C -4.6°F-20.3°C 50% 6.9 mph W11.1 kmh W 11.5 mph18.5 kmh 30.20 in1022.7 mb - 0.00 in0.0 mm 0.00 in0.0 mm
03:25 PM 10.4°F-12.0°C -4.6°F-20.3°C 50% 10.4 mph W16.7 kmh W 11.5 mph18.5 kmh 30.21 in1023.0 mb - 0.00 in0.0 mm 0.00 in0.0 mm
03:30 PM 10.4°F-12.0°C -4.6°F-20.3°C 50% 9.2 mph W14.8 kmh W 10.4 mph16.7 kmh 30.21 in1023.0 mb - 0.00 in0.0 mm 0.00 in0.0 mm
03:35 PM 10.4°F-12.0°C -4.6°F-20.3°C 50% 10.4 mph W16.7 kmh W 10.4 mph16.7 kmh 30.21 in1023.0 mb - 0.00 in0.0 mm 0.00 in0.0 mm
03:40 PM 10.4°F-12.0°C -4.6°F-20.3°C 50% 12.7 mph W20.4 kmh W 11.5 mph18.5 kmh 30.21 in1023.0 mb - 0.00 in0.0 mm 0.00 in0.0 mm
03:45 PM 10.4°F-12.0°C -4.6°F-20.3°C 50% 8.1 mph W13.0 kmh W 8.1 mph13.0 kmh 30.21 in1023.0 mb - 0.00 in0.0 mm 0.00 in0.0 mm
03:50 PM 10.4°F-12.0°C -4.6°F-20.3°C 50% 6.9 mph W11.1 kmh W 4.6 mph7.4 kmh 30.22 in1023.4 mb - 0.00 in0.0 mm 0.00 in0.0 mm
03:55 PM 12.2°F-11.0°C -2.9°F-19.4°C 50% 4.6 mph W7.4 kmh W 3.5 mph5.6 kmh 30.23 in1023.7 mb - 0.00 in0.0 mm 0.00 in0.0 mm
04:00 PM 10.4°F-12.0°C -4.6°F-20.3°C 50% 9.2 mph SE14.8 kmh SE 10.4 mph16.7 kmh 30.22 in1023.4 mb - 0.00 in0.0 mm 0.00 in0.0 mm
04:10 PM 12.2°F-11.0°C -2.9°F-19.4°C 50% 9.2 mph WNW14.8 kmh WNW 10.4 mph16.7 kmh 30.23 in1023.7 mb - 0.00 in0.0 mm 0.00 in0.0 mm
04:15 PM 12.2°F-11.0°C -2.9°F-19.4°C 50% 6.9 mph NW11.1 kmh NW 8.1 mph13.0 kmh 30.22 in1023.4 mb - 0.00 in0.0 mm 0.00 in0.0 mm
04:20 PM 12.2°F-11.0°C -2.9°F-19.4°C 50% 6.9 mph W11.1 kmh W 6.9 mph11.1 kmh 30.23 in1023.7 mb - 0.00 in0.0 mm 0.00 in0.0 mm
04:25 PM 11.3°F-11.5°C -3.8°F-19.9°C 50% 10.4 mph NW16.7 kmh NW 13.8 mph22.2 kmh 30.23 in1023.7 mb - 0.00 in0.0 mm 0.00 in0.0 mm
04:30 PM 11.0°F-11.7°C -4.0°F-20.0°C 50% 8.1 mph W13.0 kmh W 9.2 mph14.8 kmh 30.24 in1024.0 mb - 0.00 in0.0 mm 0.00 in0.0 mm
04:35 PM 12.2°F-11.0°C -2.9°F-19.4°C 50% 8.1 mph W13.0 kmh W 12.7 mph20.4 kmh 30.24 in1024.0 mb - 0.00 in0.0 mm 0.00 in0.0 mm
04:40 PM 10.6°F-11.9°C -4.4°F-20.2°C 50% 9.2 mph W14.8 kmh W 10.4 mph16.7 kmh 30.24 in1024.0 mb - 0.00 in0.0 mm 0.00 in0.0 mm
04:45 PM 11.2°F-11.6°C -3.9°F-19.9°C 50% 4.6 mph W7.4 kmh W 8.1 mph13.0 kmh 30.24 in1024.0 mb - 0.00 in0.0 mm 0.00 in0.0 mm
04:50 PM 12.2°F-11.0°C -2.9°F-19.4°C 50% 8.1 mph NW13.0 kmh NW 9.2 mph14.8 kmh 30.25 in1024.4 mb - 0.00 in0.0 mm 0.00 in0.0 mm
04:55 PM 12.2°F-11.0°C -2.9°F-19.4°C 50% 6.9 mph WSW11.1 kmh WSW 5.8 mph9.3 kmh 30.26 in1024.7 mb - 0.00 in0.0 mm 0.00 in0.0 mm
05:00 PM 12.2°F-11.0°C -2.9°F-19.4°C 50% 5.8 mph W9.3 kmh W 9.2 mph14.8 kmh 30.27 in1025.1 mb - 0.00 in0.0 mm 0.00 in0.0 mm
05:10 PM 10.4°F-12.0°C -4.6°F-20.3°C 50% 9.2 mph WSW14.8 kmh WSW 8.1 mph13.0 kmh 30.27 in1025.1 mb - 0.00 in0.0 mm 0.00 in0.0 mm
05:15 PM 10.4°F-12.0°C -4.2°F-20.1°C 51% 8.1 mph WNW13.0 kmh WNW 11.5 mph18.5 kmh 30.28 in1025.4 mb - 0.00 in0.0 mm 0.00 in0.0 mm
05:20 PM 10.4°F-12.0°C -4.2°F-20.1°C 51% 6.9 mph W11.1 kmh W 8.1 mph13.0 kmh 30.28 in1025.4 mb - 0.00 in0.0 mm 0.00 in0.0 mm
05:25 PM 10.4°F-12.0°C -3.4°F-19.7°C 53% 6.9 mph W11.1 kmh W 5.8 mph9.3 kmh 30.28 in1025.4 mb - 0.00 in0.0 mm 0.00 in0.0 mm
05:30 PM 8.6°F-13.0°C -5.1°F-20.6°C 53% 9.2 mph W14.8 kmh W 11.5 mph18.5 kmh 30.28 in1025.4 mb - 0.00 in0.0 mm 0.00 in0.0 mm
05:35 PM 8.6°F-13.0°C -4.3°F-20.2°C 55% 8.1 mph WSW13.0 kmh WSW 11.5 mph18.5 kmh 30.28 in1025.4 mb - 0.00 in0.0 mm 0.00 in0.0 mm
05:40 PM 8.6°F-13.0°C -4.3°F-20.2°C 55% 8.1 mph W13.0 kmh W 16.1 mph25.9 kmh 30.29 in1025.7 mb - 0.00 in0.0 mm 0.00 in0.0 mm
05:45 PM 8.6°F-13.0°C -3.9°F-19.9°C 56% 8.1 mph WSW13.0 kmh WSW 11.5 mph18.5 kmh 30.30 in1026.1 mb - 0.00 in0.0 mm 0.00 in0.0 mm
05:50 PM 8.6°F-13.0°C -4.3°F-20.2°C 55% 8.1 mph W13.0 kmh W 9.2 mph14.8 kmh 30.30 in1026.1 mb - 0.00 in0.0 mm 0.00 in0.0 mm
05:55 PM 8.6°F-13.0°C -3.9°F-19.9°C 56% 6.9 mph W11.1 kmh W 9.2 mph14.8 kmh 30.30 in1026.1 mb - 0.00 in0.0 mm 0.00 in0.0 mm
06:00 PM 6.8°F-14.0°C -5.2°F-20.7°C 57% 6.9 mph W11.1 kmh W 10.4 mph16.7 kmh 30.30 in1026.1 mb - 0.00 in0.0 mm 0.00 in0.0 mm
06:10 PM 6.8°F-14.0°C -4.9°F-20.5°C 58% 6.9 mph W11.1 kmh W 8.1 mph13.0 kmh 30.31 in1026.4 mb - 0.00 in0.0 mm 0.00 in0.0 mm
06:15 PM 6.8°F-14.0°C -4.2°F-20.1°C 60% 3.5 mph S5.6 kmh S 3.5 mph5.6 kmh 30.31 in1026.4 mb - 0.00 in0.0 mm 0.00 in0.0 mm
06:20 PM 6.8°F-14.0°C -3.8°F-19.9°C 61% 4.6 mph SSW7.4 kmh SSW 6.9 mph11.1 kmh 30.32 in1026.8 mb - 0.00 in0.0 mm 0.00 in0.0 mm
06:25 PM 6.8°F-14.0°C -3.8°F-19.9°C 61% 5.8 mph W9.3 kmh W 4.6 mph7.4 kmh 30.31 in1026.4 mb - 0.00 in0.0 mm 0.00 in0.0 mm
06:30 PM 6.8°F-14.0°C -3.8°F-19.9°C 61% 4.6 mph WSW7.4 kmh WSW 8.1 mph13.0 kmh 30.32 in1026.8 mb - 0.00 in0.0 mm 0.00 in0.0 mm
06:35 PM 6.8°F-14.0°C -3.8°F-19.9°C 61% 5.8 mph WSW9.3 kmh WSW 10.4 mph16.7 kmh 30.32 in1026.8 mb - 0.00 in0.0 mm 0.00 in0.0 mm
06:40 PM 6.8°F-14.0°C -3.8°F-19.9°C 61% 5.8 mph WSW9.3 kmh WSW 6.9 mph11.1 kmh 30.32 in1026.8 mb - 0.00 in0.0 mm 0.00 in0.0 mm
06:45 PM 6.8°F-14.0°C -3.8°F-19.9°C 61% 5.8 mph W9.3 kmh W 6.9 mph11.1 kmh 30.33 in1027.1 mb - 0.00 in0.0 mm 0.00 in0.0 mm
06:50 PM 6.8°F-14.0°C -3.8°F-19.9°C 61% 6.9 mph W11.1 kmh W 5.8 mph9.3 kmh 30.33 in1027.1 mb - 0.00 in0.0 mm 0.00 in0.0 mm
06:55 PM 6.8°F-14.0°C -3.8°F-19.9°C 61% 3.5 mph W5.6 kmh W 4.6 mph7.4 kmh 30.33 in1027.1 mb - 0.00 in0.0 mm 0.00 in0.0 mm
07:00 PM 6.8°F-14.0°C -3.8°F-19.9°C 61% 4.6 mph WSW7.4 kmh WSW 6.9 mph11.1 kmh 30.33 in1027.1 mb - 0.00 in0.0 mm 0.00 in0.0 mm
07:10 PM 6.8°F-14.0°C -3.8°F-19.9°C 61% 3.5 mph WSW5.6 kmh WSW 4.6 mph7.4 kmh 30.34 in1027.4 mb - 0.00 in0.0 mm 0.00 in0.0 mm
07:15 PM 6.8°F-14.0°C -3.8°F-19.9°C 61% 4.6 mph W7.4 kmh W 3.5 mph5.6 kmh 30.34 in1027.4 mb - 0.00 in0.0 mm 0.00 in0.0 mm
07:20 PM 6.8°F-14.0°C -3.8°F-19.9°C 61% 4.6 mph W7.4 kmh W 4.6 mph7.4 kmh 30.35 in1027.8 mb - 0.00 in0.0 mm 0.00 in0.0 mm
07:25 PM 6.8°F-14.0°C -3.1°F-19.5°C 63% 5.8 mph W9.3 kmh W 5.8 mph9.3 kmh 30.35 in1027.8 mb - 0.00 in0.0 mm 0.00 in0.0 mm
07:30 PM 6.8°F-14.0°C -3.1°F-19.5°C 63% 4.6 mph WSW7.4 kmh WSW 8.1 mph13.0 kmh 30.35 in1027.8 mb - 0.00 in0.0 mm 0.00 in0.0 mm
07:35 PM 6.8°F-14.0°C -3.1°F-19.5°C 63% 4.6 mph W7.4 kmh W 6.9 mph11.1 kmh 30.35 in1027.8 mb - 0.00 in0.0 mm 0.00 in0.0 mm
07:40 PM 6.8°F-14.0°C -3.1°F-19.5°C 63% 4.6 mph WNW7.4 kmh WNW 5.8 mph9.3 kmh 30.36 in1028.1 mb - 0.00 in0.0 mm 0.00 in0.0 mm
07:45 PM 6.8°F-14.0°C -3.1°F-19.5°C 63% 6.9 mph W11.1 kmh W 8.1 mph13.0 kmh 30.36 in1028.1 mb - 0.00 in0.0 mm 0.00 in0.0 mm
07:50 PM 6.8°F-14.0°C -3.1°F-19.5°C 63% 4.6 mph W7.4 kmh W 5.8 mph9.3 kmh 30.37 in1028.4 mb - 0.00 in0.0 mm 0.00 in0.0 mm
07:55 PM 6.8°F-14.0°C -3.1°F-19.5°C 63% 4.6 mph W7.4 kmh W 4.6 mph7.4 kmh 30.36 in1028.1 mb - 0.00 in0.0 mm 0.00 in0.0 mm
08:00 PM 6.8°F-14.0°C -3.1°F-19.5°C 63% 4.6 mph W7.4 kmh W 3.5 mph5.6 kmh 30.37 in1028.4 mb - 0.00 in0.0 mm 0.00 in0.0 mm
08:10 PM 6.8°F-14.0°C -2.5°F-19.2°C 65% 4.6 mph W7.4 kmh W 5.8 mph9.3 kmh 30.38 in1028.8 mb - 0.00 in0.0 mm 0.00 in0.0 mm
08:15 PM 6.8°F-14.0°C -2.5°F-19.2°C 65% 4.6 mph WNW7.4 kmh WNW 6.9 mph11.1 kmh 30.38 in1028.8 mb - 0.00 in0.0 mm 0.00 in0.0 mm
08:20 PM 6.8°F-14.0°C -2.8°F-19.3°C 64% 5.8 mph WNW9.3 kmh WNW 13.8 mph22.2 kmh 30.38 in1028.8 mb - 0.00 in0.0 mm 0.00 in0.0 mm
08:25 PM 6.8°F-14.0°C -3.1°F-19.5°C 63% 6.9 mph N11.1 kmh N 5.8 mph9.3 kmh 30.38 in1028.8 mb - 0.00 in0.0 mm 0.00 in0.0 mm
08:30 PM 6.8°F-14.0°C -3.1°F-19.5°C 63% 6.9 mph W11.1 kmh W 9.2 mph14.8 kmh 30.38 in1028.8 mb - 0.00 in0.0 mm 0.00 in0.0 mm
08:35 PM 6.8°F-14.0°C -3.1°F-19.5°C 63% 6.9 mph W11.1 kmh W 6.9 mph11.1 kmh 30.39 in1029.1 mb - 0.00 in0.0 mm 0.00 in0.0 mm
08:40 PM 6.8°F-14.0°C -3.1°F-19.5°C 63% 4.6 mph W7.4 kmh W 3.5 mph5.6 kmh 30.39 in1029.1 mb - 0.00 in0.0 mm 0.00 in0.0 mm
08:45 PM 6.8°F-14.0°C -3.1°F-19.5°C 63% 6.9 mph NW11.1 kmh NW 5.8 mph9.3 kmh 30.39 in1029.1 mb - 0.00 in0.0 mm 0.00 in0.0 mm
08:50 PM 6.8°F-14.0°C -3.1°F-19.5°C 63% 6.9 mph NW11.1 kmh NW 5.8 mph9.3 kmh 30.40 in1029.5 mb - 0.00 in0.0 mm 0.00 in0.0 mm
08:55 PM 6.8°F-14.0°C -3.1°F-19.5°C 63% 4.6 mph NW7.4 kmh NW 6.9 mph11.1 kmh 30.39 in1029.1 mb - 0.00 in0.0 mm 0.00 in0.0 mm
09:00 PM 6.8°F-14.0°C -3.1°F-19.5°C 63% 5.8 mph WSW9.3 kmh WSW 6.9 mph11.1 kmh 30.40 in1029.5 mb - 0.00 in0.0 mm 0.00 in0.0 mm
09:10 PM 6.8°F-14.0°C -3.1°F-19.5°C 63% 5.8 mph W9.3 kmh W 8.1 mph13.0 kmh 30.40 in1029.5 mb - 0.00 in0.0 mm 0.00 in0.0 mm
09:15 PM 6.8°F-14.0°C -3.1°F-19.5°C 63% 5.8 mph NW9.3 kmh NW 9.2 mph14.8 kmh 30.40 in1029.5 mb - 0.00 in0.0 mm 0.00 in0.0 mm
09:20 PM 6.8°F-14.0°C -3.1°F-19.5°C 63% 3.5 mph NW5.6 kmh NW 5.8 mph9.3 kmh 30.39 in1029.1 mb - 0.00 in0.0 mm 0.00 in0.0 mm
09:25 PM 6.8°F-14.0°C -2.5°F-19.2°C 65% 3.5 mph NW5.6 kmh NW 4.6 mph7.4 kmh 30.39 in1029.1 mb - 0.00 in0.0 mm 0.00 in0.0 mm
09:30 PM 6.8°F-14.0°C -2.5°F-19.2°C 65% 4.6 mph NE7.4 kmh NE 3.5 mph5.6 kmh 30.40 in1029.5 mb - 0.00 in0.0 mm 0.00 in0.0 mm
09:35 PM 5.0°F-15.0°C -4.2°F-20.1°C 65% 4.6 mph SE7.4 kmh SE 3.5 mph5.6 kmh 30.41 in1029.8 mb - 0.00 in0.0 mm 0.00 in0.0 mm
09:40 PM 5.0°F-15.0°C -4.2°F-20.1°C 65% 4.6 mph W7.4 kmh W 8.1 mph13.0 kmh 30.41 in1029.8 mb - 0.00 in0.0 mm 0.00 in0.0 mm
09:45 PM 5.0°F-15.0°C -4.2°F-20.1°C 65% 5.8 mph W9.3 kmh W 3.5 mph5.6 kmh 30.41 in1029.8 mb - 0.00 in0.0 mm 0.00 in0.0 mm
09:50 PM 5.0°F-15.0°C -3.9°F-19.9°C 66% 4.6 mph W7.4 kmh W 6.9 mph11.1 kmh 30.40 in1029.5 mb - 0.00 in0.0 mm 0.00 in0.0 mm
09:55 PM 6.8°F-14.0°C -2.5°F-19.2°C 65% 4.6 mph W7.4 kmh W 6.9 mph11.1 kmh 30.41 in1029.8 mb - 0.00 in0.0 mm 0.00 in0.0 mm
10:00 PM 6.8°F-14.0°C -2.5°F-19.2°C 65% 5.8 mph WSW9.3 kmh WSW 5.8 mph9.3 kmh 30.40 in1029.5 mb - 0.00 in0.0 mm 0.00 in0.0 mm
10:10 PM 6.8°F-14.0°C -2.5°F-19.2°C 65% 5.8 mph WSW9.3 kmh WSW 5.8 mph9.3 kmh 30.41 in1029.8 mb - 0.00 in0.0 mm 0.00 in0.0 mm
10:15 PM 6.8°F-14.0°C -2.5°F-19.2°C 65% 4.6 mph NW7.4 kmh NW 6.9 mph11.1 kmh 30.41 in1029.8 mb - 0.00 in0.0 mm 0.00 in0.0 mm
10:20 PM 6.8°F-14.0°C -2.5°F-19.2°C 65% 4.6 mph W7.4 kmh W 5.8 mph9.3 kmh 30.42 in1030.1 mb - 0.00 in0.0 mm 0.00 in0.0 mm
10:25 PM 6.8°F-14.0°C -2.5°F-19.2°C 65% 3.5 mph WSW5.6 kmh WSW 4.6 mph7.4 kmh 30.41 in1029.8 mb - 0.00 in0.0 mm 0.00 in0.0 mm
10:30 PM 6.8°F-14.0°C -2.5°F-19.2°C 65% 4.6 mph WSW7.4 kmh WSW 4.6 mph7.4 kmh 30.41 in1029.8 mb - 0.00 in0.0 mm 0.00 in0.0 mm
10:35 PM 6.8°F-14.0°C -2.5°F-19.2°C 65% 4.6 mph W7.4 kmh W 4.6 mph7.4 kmh 30.42 in1030.1 mb - 0.00 in0.0 mm 0.00 in0.0 mm
10:40 PM 5.0°F-15.0°C -4.2°F-20.1°C 65% 4.6 mph W7.4 kmh W 9.2 mph14.8 kmh 30.41 in1029.8 mb - 0.00 in0.0 mm 0.00 in0.0 mm
10:45 PM 5.0°F-15.0°C -4.2°F-20.1°C 65% 6.9 mph W11.1 kmh W 5.8 mph9.3 kmh 30.41 in1029.8 mb - 0.00 in0.0 mm 0.00 in0.0 mm
10:50 PM 5.0°F-15.0°C -4.2°F-20.1°C 65% 5.8 mph WSW9.3 kmh WSW 5.8 mph9.3 kmh 30.42 in1030.1 mb - 0.00 in0.0 mm 0.00 in0.0 mm
10:55 PM 5.0°F-15.0°C -3.9°F-19.9°C 66% 5.8 mph WSW9.3 kmh WSW 5.8 mph9.3 kmh 30.42 in1030.1 mb - 0.00 in0.0 mm 0.00 in0.0 mm
11:00 PM 5.0°F-15.0°C -3.9°F-19.9°C 66% 5.8 mph WSW9.3 kmh WSW 8.1 mph13.0 kmh 30.43 in1030.5 mb - 0.00 in0.0 mm 0.00 in0.0 mm
11:10 PM 5.0°F-15.0°C -3.3°F-19.6°C 68% 5.8 mph WSW9.3 kmh WSW 8.1 mph13.0 kmh 30.43 in1030.5 mb - 0.00 in0.0 mm 0.00 in0.0 mm
11:15 PM 5.0°F-15.0°C -3.3°F-19.6°C 68% 5.8 mph SW9.3 kmh SW 4.6 mph7.4 kmh 30.43 in1030.5 mb - 0.00 in0.0 mm 0.00 in0.0 mm
11:20 PM 5.0°F-15.0°C -3.0°F-19.4°C 69% 5.8 mph W9.3 kmh W 10.4 mph16.7 kmh 30.43 in1030.5 mb - 0.00 in0.0 mm 0.00 in0.0 mm
11:25 PM 5.0°F-15.0°C -3.0°F-19.4°C 69% 5.8 mph WSW9.3 kmh WSW 6.9 mph11.1 kmh 30.42 in1030.1 mb - 0.00 in0.0 mm 0.00 in0.0 mm
11:30 PM 5.0°F-15.0°C -3.0°F-19.4°C 69% 5.8 mph WSW9.3 kmh WSW 8.1 mph13.0 kmh 30.43 in1030.5 mb - 0.00 in0.0 mm 0.00 in0.0 mm
11:35 PM 5.0°F-15.0°C -3.0°F-19.4°C 69% 5.8 mph W9.3 kmh W 5.8 mph9.3 kmh 30.42 in1030.1 mb - 0.00 in0.0 mm 0.00 in0.0 mm
11:40 PM 5.0°F-15.0°C -3.0°F-19.4°C 69% 4.6 mph WSW7.4 kmh WSW 3.5 mph5.6 kmh 30.43 in1030.5 mb - 0.00 in0.0 mm 0.00 in0.0 mm
11:45 PM 3.2°F-16.0°C -4.4°F-20.2°C 70% 4.6 mph W7.4 kmh W 4.6 mph7.4 kmh 30.43 in1030.5 mb - 0.00 in0.0 mm 0.00 in0.0 mm
11:50 PM 3.2°F-16.0°C -4.4°F-20.2°C 70% 4.6 mph WSW7.4 kmh WSW 8.1 mph13.0 kmh 30.43 in1030.5 mb - 0.00 in0.0 mm 0.00 in0.0 mm
11:55 PM 3.2°F-16.0°C -4.4°F-20.2°C 70% 5.8 mph WSW9.3 kmh WSW 6.9 mph11.1 kmh 30.43 in1030.5 mb - 0.00 in0.0 mm 0.00 in0.0 mm